Time;durP1;ratioP1;P1;durP2;ratioP2;P2;SDS_P1;SDS_P2;PMS_P1;PMS_P2;Temp;Humidity;BMP_temperature;BMP_pressure;BME280_temperature;BME280_humidity;BME280_pressure;Samples;Min_cycle;Max_cycle;Signal;HPM_P1;HPM_P2
2022/11/07 00:01:15;;;;;;;10.18;2.75;;;11.80;75.90;;;;;;5073232;28;20103;-74
2022/11/07 00:03:41;;;;;;;11.10;3.20;;;11.80;76.00;;;;;;5061238;28;20115;-73
2022/11/07 00:06:07;;;;;;;7.43;2.92;;;11.70;75.80;;;;;;5072261;28;20033;-72
2022/11/07 00:08:33;;;;;;;10.77;3.25;;;11.80;76.00;;;;;;5066519;28;20127;-74
2022/11/07 00:11:03;;;;;;;12.15;2.67;;;11.80;76.00;;;;;;5069630;28;20036;-72
2022/11/07 00:13:29;;;;;;;12.20;2.85;;;11.70;76.40;;;;;;5067854;28;20024;-74
2022/11/07 00:16:00;;;;;;;10.25;4.05;;;11.70;75.90;;;;;;5067411;28;20033;-74
2022/11/07 00:18:27;;;;;;;12.18;3.22;;;11.80;76.10;;;;;;5064098;28;20382;-74
2022/11/07 00:20:53;;;;;;;11.30;2.65;;;11.70;75.90;;;;;;5059681;28;20040;-75
2022/11/07 00:23:19;;;;;;;8.23;2.90;;;11.70;75.90;;;;;;5057316;28;20059;-73
2022/11/07 00:25:45;;;;;;;11.88;2.58;;;11.80;76.10;;;;;;5062415;28;20462;-75
2022/11/07 00:28:11;;;;;;;13.68;2.72;;;11.80;76.20;;;;;;5058837;28;20375;-74
2022/11/07 00:30:37;;;;;;;13.77;2.60;;;11.80;76.10;;;;;;5062742;28;20032;-77
2022/11/07 00:33:03;;;;;;;8.68;2.10;;;11.80;76.10;;;;;;5063009;28;20021;-76
2022/11/07 00:35:29;;;;;;;10.50;2.10;;;11.80;76.10;;;;;;5057692;28;20032;-77
2022/11/07 00:37:55;;;;;;;8.25;2.33;;;11.80;76.10;;;;;;5046997;28;20392;-75
2022/11/07 00:40:21;;;;;;;7.30;2.20;;;11.90;76.20;;;;;;5062715;28;20036;-73
2022/11/07 00:42:47;;;;;;;7.43;2.30;;;11.90;76.20;;;;;;5064104;28;20044;-76
2022/11/07 00:45:13;;;;;;;11.48;2.50;;;11.80;76.00;;;;;;5050617;28;20229;-74
2022/11/07 00:47:39;;;;;;;9.18;1.95;;;11.90;76.20;;;;;;5063944;28;20029;-78
2022/11/07 00:50:06;;;;;;;8.95;3.13;;;11.90;76.20;;;;;;5061783;28;20522;-76
2022/11/07 00:52:32;;;;;;;5.68;1.90;;;11.90;76.10;;;;;;5060072;28;20040;-75
2022/11/07 00:54:58;;;;;;;7.65;1.98;;;11.90;76.10;;;;;;5062159;28;20064;-74
2022/11/07 00:57:24;;;;;;;8.23;2.55;;;11.90;76.60;;;;;;5060901;28;20040;-76
2022/11/07 00:59:50;;;;;;;16.10;2.78;;;11.90;76.30;;;;;;5056001;28;20108;-74
2022/11/07 01:02:16;;;;;;;8.07;2.53;;;11.90;76.10;;;;;;5046257;28;20033;-73
2022/11/07 01:07:26;;;;;;;6.32;1.70;;;11.90;76.10;;;;;;5063310;28;20021;-73
2022/11/07 01:09:52;;;;;;;7.45;2.70;;;12.00;76.30;;;;;;5059911;28;20040;-73
2022/11/07 01:12:18;;;;;;;10.32;2.20;;;12.00;76.30;;;;;;5063615;28;20145;-73
2022/11/07 01:14:44;;;;;;;7.68;2.42;;;12.00;76.30;;;;;;5064651;28;20028;-73
2022/11/07 01:17:10;;;;;;;5.72;1.98;;;12.00;76.30;;;;;;5064723;28;20324;-74
2022/11/07 01:19:36;;;;;;;6.68;2.42;;;12.00;76.30;;;;;;5066717;28;20511;-73
2022/11/07 01:22:02;;;;;;;10.02;2.33;;;12.00;76.30;;;;;;5067370;28;20040;-75
2022/11/07 01:24:27;;;;;;;5.82;1.80;;;12.00;76.30;;;;;;5055211;28;20430;-74
2022/11/07 01:26:53;;;;;;;7.50;2.00;;;12.00;76.30;;;;;;5066806;28;20025;-78
2022/11/07 01:29:19;;;;;;;4.72;1.70;;;12.00;76.20;;;;;;5059960;28;20029;-74
2022/11/07 01:31:46;;;;;;;8.88;2.30;;;12.00;76.20;;;;;;5064130;28;20032;-78
2022/11/07 01:34:12;;;;;;;11.32;2.25;;;12.10;76.40;;;;;;5065303;28;20047;-75
2022/11/07 01:36:38;;;;;;;8.07;1.80;;;12.00;76.20;;;;;;5054218;28;20028;-74
2022/11/07 01:39:04;;;;;;;8.80;2.08;;;12.10;76.40;;;;;;5064852;28;20040;-73
2022/11/07 01:41:34;;;;;;;8.05;2.80;;;12.10;76.40;;;;;;5066942;28;20490;-74
2022/11/07 01:44:05;;;;;;;5.80;1.55;;;12.00;76.20;;;;;;5067430;28;20051;-73
2022/11/07 01:46:35;;;;;;;8.13;1.88;;;12.00;76.20;;;;;;5053404;28;20032;-75
2022/11/07 01:49:14;;;;;;;9.57;2.40;;;12.00;76.20;;;;;;5066529;28;20066;-74
2022/11/07 01:51:58;;;;;;;5.18;1.75;;;12.00;76.30;;;;;;5061781;28;20028;-76
2022/11/07 01:54:29;;;;;;;8.55;1.80;;;12.00;76.30;;;;;;5064126;28;20032;-73
2022/11/07 01:56:58;;;;;;;8.52;2.00;;;12.00;76.20;;;;;;5066760;28;20496;-75
2022/11/07 01:59:28;;;;;;;8.77;2.42;;;12.00;76.30;;;;;;5044199;28;20024;-77
2022/11/07 02:01:54;;;;;;;10.32;3.08;;;12.00;76.30;;;;;;5053843;28;20078;-73
2022/11/07 02:04:23;;;;;;;10.65;3.05;;;12.00;76.30;;;;;;5052636;28;20029;-75
2022/11/07 02:07:12;;;;;;;7.60;2.15;;;12.00;76.30;;;;;;5057949;28;20037;-74
2022/11/07 02:09:39;;;;;;;6.97;2.15;;;12.00;76.40;;;;;;5062127;28;20066;-73
2022/11/07 02:12:05;;;;;;;11.32;4.35;;;12.00;76.30;;;;;;5052053;28;20029;-76
2022/11/07 02:14:31;;;;;;;9.05;2.13;;;12.00;76.30;;;;;;5060729;28;20025;-75
2022/11/07 02:16:58;;;;;;;9.93;1.83;;;12.00;76.30;;;;;;5066076;28;20372;-77
2022/11/07 02:19:41;;;;;;;6.93;2.25;;;12.10;76.50;;;;;;5061850;28;20032;-79
2022/11/07 02:22:30;;;;;;;8.93;1.95;;;12.10;76.50;;;;;;5065965;28;20429;-75
2022/11/07 02:24:59;;;;;;;8.50;2.05;;;12.10;76.50;;;;;;5061363;28;20488;-76
2022/11/07 02:27:28;;;;;;;9.70;2.53;;;12.10;76.40;;;;;;5051171;28;20025;-74
2022/11/07 02:30:04;;;;;;;10.18;2.72;;;12.20;76.50;;;;;;5060587;28;20028;-76
2022/11/07 02:32:30;;;;;;;8.30;1.92;;;12.20;76.50;;;;;;5056485;28;20097;-77
2022/11/07 02:34:59;;;;;;;8.18;2.17;;;12.20;76.50;;;;;;5052360;28;20460;-76
2022/11/07 02:37:30;;;;;;;11.07;3.10;;;12.20;76.50;;;;;;5053973;28;20044;-74
2022/11/07 02:40:01;;;;;;;7.18;2.22;;;12.20;76.40;;;;;;5062154;28;20043;-76
2022/11/07 02:42:42;;;;;;;8.65;1.85;;;12.20;76.40;;;;;;5065435;28;20032;-76
2022/11/07 02:45:37;;;;;;;9.65;1.92;;;12.20;76.40;;;;;;5065249;28;20028;-76
2022/11/07 02:48:04;;;;;;;9.43;2.60;;;12.20;76.40;;;;;;5046844;28;20456;-78
2022/11/07 02:50:30;;;;;;;6.70;2.28;;;12.20;76.40;;;;;;5047554;28;20039;-79
2022/11/07 02:52:56;;;;;;;9.77;3.13;;;12.20;76.40;;;;;;5048215;28;20561;-79
2022/11/07 02:55:22;;;;;;;10.70;2.30;;;12.20;76.40;;;;;;5047397;28;20512;-79
2022/11/07 02:57:47;;;;;;;12.40;3.10;;;12.20;76.40;;;;;;5047934;28;20055;-80
2022/11/07 03:00:14;;;;;;;11.02;2.30;;;12.20;76.40;;;;;;5048556;28;20040;-78
2022/11/07 03:02:45;;;;;;;12.65;3.63;;;12.30;76.50;;;;;;5063937;28;20489;-80
2022/11/07 03:05:13;;;;;;;11.52;2.78;;;12.30;76.60;;;;;;5047953;28;20025;-80
2022/11/07 03:07:41;;;;;;;10.80;3.03;;;12.30;76.50;;;;;;5046106;28;20029;-79
2022/11/07 03:10:09;;;;;;;6.55;1.73;;;12.30;76.60;;;;;;5046573;28;20035;-79
2022/11/07 03:12:35;;;;;;;13.00;2.85;;;12.30;76.50;;;;;;5048332;28;20028;-79
2022/11/07 03:15:01;;;;;;;13.57;2.63;;;12.30;76.50;;;;;;5034926;28;20484;-79
2022/11/07 03:17:27;;;;;;;14.73;3.72;;;12.40;76.70;;;;;;5028204;28;20034;-79
2022/11/07 03:19:53;;;;;;;12.02;3.83;;;12.40;76.60;;;;;;5026955;28;20199;-79
2022/11/07 03:22:19;;;;;;;11.13;3.30;;;12.40;76.60;;;;;;5027986;28;20031;-77
2022/11/07 03:24:45;;;;;;;15.45;3.22;;;12.40;76.60;;;;;;5030019;28;20025;-79
2022/11/07 03:27:10;;;;;;;13.50;2.33;;;12.50;76.70;;;;;;5047810;28;20025;-80
2022/11/07 03:29:36;;;;;;;13.45;3.30;;;12.50;76.70;;;;;;5045894;28;20052;-79
2022/11/07 03:32:02;;;;;;;13.60;3.70;;;12.50;76.70;;;;;;5028195;28;20026;-79
2022/11/07 03:34:28;;;;;;;13.93;2.72;;;12.50;76.70;;;;;;5027719;28;20026;-78
2022/11/07 03:36:54;;;;;;;12.95;3.55;;;12.50;76.70;;;;;;5027420;28;20645;-78
2022/11/07 03:39:20;;;;;;;19.75;4.22;;;12.50;76.70;;;;;;5033644;28;20020;-78
2022/11/07 03:41:46;;;;;;;21.42;5.13;;;12.50;76.70;;;;;;5027051;28;20025;-78
2022/11/07 03:44:12;;;;;;;15.52;4.63;;;12.50;76.70;;;;;;5028604;28;20061;-78
2022/11/07 03:46:37;;;;;;;11.20;3.35;;;12.50;76.70;;;;;;5047098;28;20048;-79
2022/11/07 03:49:03;;;;;;;9.25;3.33;;;12.50;76.70;;;;;;5046970;28;20037;-78
2022/11/07 03:51:29;;;;;;;13.57;3.80;;;12.50;76.70;;;;;;5047454;28;20031;-79
2022/11/07 03:53:55;;;;;;;15.20;4.38;;;12.50;76.70;;;;;;5046973;28;20024;-78
2022/11/07 03:56:21;;;;;;;19.17;5.38;;;12.50;76.70;;;;;;5046057;28;20090;-78
2022/11/07 03:58:47;;;;;;;15.95;3.45;;;12.50;76.70;;;;;;5032656;28;20037;-79
2022/11/07 04:01:13;;;;;;;20.80;5.50;;;12.60;76.90;;;;;;5028180;28;20128;-78
2022/11/07 04:03:39;;;;;;;15.77;2.97;;;12.60;76.90;;;;;;5031515;28;20052;-78
2022/11/07 04:06:05;;;;;;;12.52;3.90;;;12.60;76.90;;;;;;5046112;28;20040;-78
2022/11/07 04:08:30;;;;;;;12.75;3.70;;;12.60;76.90;;;;;;5044458;28;20032;-79
2022/11/07 04:10:56;;;;;;;16.42;3.78;;;12.60;76.90;;;;;;5040494;28;20022;-78
2022/11/07 04:18:57;;;;;;;11.77;2.95;;;12.60;76.90;;;;;;5045297;28;20043;-78
2022/11/07 04:21:23;;;;;;;12.68;2.92;;;12.60;76.90;;;;;;5046854;28;20070;-78
2022/11/07 04:23:49;;;;;;;16.35;3.78;;;12.60;77.50;;;;;;5046441;28;20029;-78
2022/11/07 04:28:59;;;;;;;11.35;3.10;;;12.60;76.90;;;;;;5040088;28;20037;-78
2022/11/07 04:31:25;;;;;;;16.95;3.17;;;12.60;76.90;;;;;;5027637;28;20033;-78
2022/11/07 04:33:51;;;;;;;11.38;2.90;;;12.60;76.90;;;;;;5027188;28;20389;-77
2022/11/07 04:36:17;;;;;;;17.92;4.82;;;12.60;76.90;;;;;;5027202;28;20028;-78
2022/11/07 04:38:43;;;;;;;12.15;3.65;;;12.60;77.00;;;;;;5038938;28;20039;-77
2022/11/07 04:41:23;;;;;;;16.85;3.65;;;12.60;77.00;;;;;;5047261;28;20025;-78
2022/11/07 04:43:49;;;;;;;10.70;2.88;;;12.60;77.10;;;;;;5046703;28;20033;-79
2022/11/07 04:46:16;;;;;;;13.70;3.42;;;12.60;77.60;;;;;;5047219;28;20041;-78
2022/11/07 04:48:42;;;;;;;11.73;3.63;;;12.60;77.10;;;;;;5048855;28;20644;-77
2022/11/07 04:51:13;;;;;;;15.32;3.40;;;12.50;76.90;;;;;;5044062;28;20022;-79
2022/11/07 04:53:39;;;;;;;15.32;2.85;;;12.50;77.00;;;;;;5051699;28;20070;-78
2022/11/07 04:56:05;;;;;;;16.58;3.10;;;12.50;77.00;;;;;;5051350;28;20025;-79
2022/11/07 04:58:31;;;;;;;9.88;2.63;;;12.50;77.00;;;;;;5043097;28;20049;-78
2022/11/07 05:00:57;;;;;;;8.27;2.38;;;12.50;77.10;;;;;;5030468;28;20031;-78
2022/11/07 05:03:23;;;;;;;14.00;3.70;;;12.50;77.10;;;;;;5051020;28;20472;-78
2022/11/07 05:05:49;;;;;;;12.18;4.13;;;12.40;76.90;;;;;;5050585;28;20025;-77
2022/11/07 05:08:15;;;;;;;11.63;2.67;;;12.50;77.10;;;;;;5049732;28;20029;-78
2022/11/07 05:10:40;;;;;;;15.93;3.65;;;12.50;77.20;;;;;;5051421;28;20037;-78
2022/11/07 05:13:06;;;;;;;8.38;3.05;;;12.50;77.20;;;;;;5053237;28;20249;-78
2022/11/07 05:15:32;;;;;;;8.82;3.55;;;12.50;77.20;;;;;;5045925;28;20029;-78
2022/11/07 05:17:58;;;;;;;19.15;4.13;;;12.50;77.20;;;;;;5030474;28;20046;-78
2022/11/07 05:20:28;;;;;;;9.32;2.53;;;12.50;77.20;;;;;;5028772;28;20036;-80
2022/11/07 05:25:41;;;;;;;12.15;3.10;;;12.50;77.20;;;;;;5040209;28;20025;-83
2022/11/07 05:28:13;;;;;;;14.85;3.40;;;12.60;77.30;;;;;;5050069;28;20032;-85
2022/11/07 05:30:40;;;;;;;15.77;3.67;;;12.50;77.70;;;;;;5049180;28;20029;-86
2022/11/07 05:33:08;;;;;;;12.93;2.90;;;12.50;77.20;;;;;;5050155;28;20021;-86
2022/11/07 05:35:34;;;;;;;12.55;3.55;;;12.50;77.20;;;;;;5048367;28;20033;-82
2022/11/07 05:38:00;;;;;;;16.20;3.08;;;12.50;77.30;;;;;;5049470;28;20094;-84
2022/11/07 05:40:26;;;;;;;10.82;3.70;;;12.50;77.30;;;;;;5048091;28;20379;-86
2022/11/07 05:42:57;;;;;;;14.95;3.25;;;12.50;77.30;;;;;;5047945;28;20033;-85
2022/11/07 05:45:23;;;;;;;15.50;3.85;;;12.50;77.40;;;;;;5050185;28;20029;-85
2022/11/07 05:47:56;;;;;;;14.05;3.25;;;12.50;77.40;;;;;;5044910;28;20080;-83
2022/11/07 05:50:22;;;;;;;13.85;4.30;;;12.50;77.50;;;;;;5043673;28;20039;-83
2022/11/07 05:52:48;;;;;;;13.70;3.72;;;12.50;77.50;;;;;;5039365;28;20025;-84
2022/11/07 05:55:14;;;;;;;15.15;4.03;;;12.50;77.50;;;;;;5043094;28;20025;-80
2022/11/07 05:57:40;;;;;;;10.40;3.55;;;12.50;77.50;;;;;;5047650;28;20056;-79
2022/11/07 06:00:06;;;;;;;12.45;3.25;;;12.50;77.50;;;;;;5044846;28;20102;-83
2022/11/07 06:02:38;;;;;;;12.23;2.70;;;12.50;77.60;;;;;;5044139;28;20047;-86
2022/11/07 06:05:04;;;;;;;13.00;2.95;;;12.60;77.80;;;;;;5047758;28;20025;-83
2022/11/07 06:07:35;;;;;;;13.05;3.67;;;12.60;77.70;;;;;;5055320;28;20476;-89
2022/11/07 06:10:01;;;;;;;11.88;2.63;;;12.60;77.80;;;;;;5050153;28;20236;-82
2022/11/07 06:12:27;;;;;;;14.43;2.92;;;12.60;77.70;;;;;;5054494;28;20033;-82
2022/11/07 06:14:53;;;;;;;12.50;2.85;;;12.60;77.70;;;;;;5053258;28;20203;-86
2022/11/07 06:17:19;;;;;;;13.55;3.05;;;12.60;77.70;;;;;;5053924;28;20067;-81
2022/11/07 06:19:45;;;;;;;11.95;3.70;;;12.60;77.70;;;;;;5049329;28;20032;-82
2022/11/07 06:22:11;;;;;;;8.95;2.03;;;12.60;77.70;;;;;;5054032;28;20115;-80
2022/11/07 06:24:37;;;;;;;13.10;3.10;;;12.70;77.90;;;;;;5045278;28;20040;-81
2022/11/07 06:27:03;;;;;;;18.90;4.40;;;12.70;77.90;;;;;;5044405;28;20464;-79
2022/11/07 06:29:28;;;;;;;11.15;2.50;;;12.70;77.90;;;;;;5045163;28;20033;-79
2022/11/07 06:31:54;;;;;;;16.30;4.00;;;12.70;77.90;;;;;;5039203;28;20022;-81
2022/11/07 06:34:20;;;;;;;10.32;3.13;;;12.70;77.90;;;;;;5047182;28;20184;-87
2022/11/07 06:36:50;;;;;;;12.18;3.17;;;12.70;77.90;;;;;;5050182;28;20036;-84
2022/11/07 06:39:16;;;;;;;12.05;3.65;;;12.70;78.00;;;;;;5051807;28;20036;-86
2022/11/07 06:41:42;;;;;;;12.48;2.30;;;12.70;78.00;;;;;;5053086;28;20523;-91
2022/11/07 06:44:08;;;;;;;13.48;2.85;;;12.70;78.00;;;;;;5046257;28;20640;-86
2022/11/07 06:46:34;;;;;;;13.15;3.78;;;12.70;78.00;;;;;;5058824;28;20552;-82
2022/11/07 06:49:00;;;;;;;15.30;4.00;;;12.80;78.20;;;;;;5056446;28;20118;-82
2022/11/07 06:51:25;;;;;;;10.48;3.55;;;12.80;78.20;;;;;;5047303;28;20037;-86
2022/11/07 06:53:53;;;;;;;13.52;3.45;;;12.80;78.30;;;;;;5051857;28;20496;-86
2022/11/07 06:56:18;;;;;;;11.20;2.50;;;12.80;78.40;;;;;;5054335;28;20104;-83
2022/11/07 06:58:44;;;;;;;12.18;3.53;;;12.90;78.70;;;;;;5048859;28;20055;-84
2022/11/07 07:01:15;;;;;;;12.32;2.60;;;12.90;78.70;;;;;;5072274;28;20029;-83
2022/11/07 07:03:42;;;;;;;9.73;2.55;;;12.90;78.70;;;;;;5075279;28;20060;-81
2022/11/07 07:06:13;;;;;;;8.68;3.05;;;12.90;78.70;;;;;;5043670;28;20029;-82
2022/11/07 07:08:40;;;;;;;11.98;2.70;;;13.00;78.90;;;;;;5043219;28;20029;-83
2022/11/07 07:11:08;;;;;;;13.27;3.10;;;13.00;78.90;;;;;;5046089;28;20027;-84
2022/11/07 07:13:34;;;;;;;11.25;2.78;;;13.00;78.90;;;;;;5048574;28;20225;-82
2022/11/07 07:16:00;;;;;;;11.05;3.55;;;13.00;78.90;;;;;;5030925;28;20036;-81
2022/11/07 07:18:27;;;;;;;11.38;2.95;;;13.00;78.90;;;;;;5046212;28;20037;-82
2022/11/07 07:21:07;;;;;;;12.50;2.92;;;13.00;78.90;;;;;;5048131;28;20037;-81
2022/11/07 07:23:34;;;;;;;8.63;2.40;;;13.10;79.10;;;;;;5024297;28;20492;-84
2022/11/07 07:26:01;;;;;;;11.27;2.75;;;13.10;79.10;;;;;;5025851;28;20498;-88
2022/11/07 07:28:27;;;;;;;14.57;5.20;;;13.10;79.10;;;;;;5026795;28;20041;-81
2022/11/07 07:30:53;;;;;;;13.35;2.53;;;13.10;79.20;;;;;;5024843;28;20036;-85
2022/11/07 07:33:20;;;;;;;11.65;2.53;;;13.10;79.20;;;;;;5042532;28;20217;-83
2022/11/07 07:35:46;;;;;;;12.18;2.45;;;13.10;79.20;;;;;;5040621;28;20519;-82
2022/11/07 07:38:11;;;;;;;10.07;2.70;;;13.10;79.20;;;;;;5022635;28;20118;-81
2022/11/07 07:40:37;;;;;;;15.10;3.70;;;13.10;79.20;;;;;;5041987;28;20492;-80
2022/11/07 07:43:03;;;;;;;9.57;3.05;;;13.10;79.20;;;;;;5033776;28;20037;-80
2022/11/07 07:45:29;;;;;;;13.38;4.20;;;13.10;79.20;;;;;;5041143;28;20021;-84
2022/11/07 07:48:00;;;;;;;14.55;3.83;;;13.10;79.20;;;;;;5043663;28;20063;-81
2022/11/07 07:50:26;;;;;;;8.85;2.40;;;13.20;79.40;;;;;;5042311;28;20021;-82
2022/11/07 07:52:56;;;;;;;11.35;3.00;;;13.20;79.40;;;;;;5041755;28;20047;-80
2022/11/07 07:55:23;;;;;;;11.38;3.78;;;13.20;79.40;;;;;;5022221;28;20025;-79
2022/11/07 07:57:49;;;;;;;10.20;2.92;;;13.20;79.40;;;;;;5041251;28;20044;-80
2022/11/07 08:00:15;;;;;;;12.13;3.22;;;13.20;79.40;;;;;;5036994;28;20044;-76
2022/11/07 08:02:42;;;;;;;8.40;2.13;;;13.20;79.40;;;;;;5041897;28;20037;-79
2022/11/07 08:05:12;;;;;;;10.82;2.67;;;13.20;79.30;;;;;;5042007;28;20097;-79
2022/11/07 08:07:49;;;;;;;8.82;3.05;;;13.30;79.50;;;;;;5043289;28;20033;-79
2022/11/07 08:10:16;;;;;;;7.95;2.67;;;13.30;79.50;;;;;;5041398;28;20021;-80
2022/11/07 08:12:47;;;;;;;10.50;2.63;;;13.40;79.60;;;;;;5043631;28;20201;-79
2022/11/07 08:15:14;;;;;;;9.40;2.45;;;13.40;79.60;;;;;;5036489;28;20089;-80
2022/11/07 08:17:41;;;;;;;8.55;2.30;;;13.40;79.50;;;;;;5042536;28;20045;-80
2022/11/07 08:20:09;;;;;;;12.93;4.03;;;13.40;79.50;;;;;;5037666;28;20024;-80
2022/11/07 08:22:36;;;;;;;9.43;2.25;;;13.40;79.50;;;;;;5043794;28;20272;-80
2022/11/07 08:25:02;;;;;;;10.88;3.47;;;13.50;79.60;;;;;;5041338;28;20025;-80
2022/11/07 08:27:28;;;;;;;6.75;2.03;;;13.50;79.50;;;;;;5043182;28;20021;-83
2022/11/07 08:29:54;;;;;;;8.68;2.30;;;13.50;79.50;;;;;;5046267;28;20029;-80
2022/11/07 08:32:20;;;;;;;7.85;1.63;;;13.50;79.50;;;;;;5047688;28;20029;-80
2022/11/07 08:34:46;;;;;;;6.72;1.92;;;13.60;79.60;;;;;;5047032;28;20523;-89
2022/11/07 08:37:12;;;;;;;6.70;2.72;;;13.60;79.60;;;;;;5046889;28;20102;-81
2022/11/07 08:39:37;;;;;;;8.75;2.05;;;13.60;79.50;;;;;;5039837;28;20542;-81
2022/11/07 08:42:03;;;;;;;5.22;2.13;;;13.60;79.50;;;;;;5045658;28;20017;-80
2022/11/07 08:44:33;;;;;;;7.47;2.33;;;13.70;79.60;;;;;;5047359;28;20089;-80
2022/11/07 08:46:59;;;;;;;6.40;1.85;;;13.70;79.60;;;;;;5045471;28;20102;-85
2022/11/07 08:49:25;;;;;;;4.60;2.58;;;13.70;79.60;;;;;;5044400;28;20037;-81
2022/11/07 08:51:51;;;;;;;6.65;2.10;;;13.70;79.60;;;;;;5047314;28;20025;-82
2022/11/07 08:54:17;;;;;;;5.63;1.75;;;13.80;79.70;;;;;;5045444;28;20044;-79
2022/11/07 08:56:43;;;;;;;5.32;1.80;;;13.80;79.70;;;;;;5045206;28;20508;-80
2022/11/07 08:59:09;;;;;;;6.30;1.73;;;13.80;79.60;;;;;;5045595;28;20390;-80
2022/11/07 09:01:35;;;;;;;5.70;1.70;;;13.80;79.50;;;;;;5045581;28;20509;-82
2022/11/07 09:04:02;;;;;;;6.47;1.65;;;13.90;79.60;;;;;;5046009;28;20101;-81
2022/11/07 09:06:28;;;;;;;7.20;2.30;;;13.90;79.60;;;;;;5037091;28;20047;-81
2022/11/07 09:08:54;;;;;;;5.95;2.08;;;14.00;79.70;;;;;;5042712;28;20047;-80
2022/11/07 09:11:20;;;;;;;4.53;1.45;;;14.00;79.60;;;;;;5042718;28;20041;-80
2022/11/07 09:13:47;;;;;;;6.40;2.38;;;14.00;79.50;;;;;;5046880;28;20549;-81
2022/11/07 09:16:16;;;;;;;7.03;1.75;;;14.10;79.60;;;;;;5028731;28;20029;-80
2022/11/07 09:18:43;;;;;;;5.82;1.67;;;14.10;79.60;;;;;;5044495;28;20032;-83
2022/11/07 09:21:09;;;;;;;6.28;1.75;;;14.20;79.60;;;;;;5049518;28;20193;-80
2022/11/07 09:23:35;;;;;;;5.93;2.15;;;14.30;80.30;;;;;;5050639;28;20033;-83
2022/11/07 09:26:02;;;;;;;8.00;1.77;;;14.30;79.60;;;;;;5043326;28;20063;-82
2022/11/07 09:28:28;;;;;;;4.43;1.52;;;14.30;80.10;;;;;;5046134;28;20037;-79
2022/11/07 09:30:55;;;;;;;6.95;2.00;;;14.30;79.40;;;;;;5044474;28;20041;-80
2022/11/07 09:33:22;;;;;;;5.68;1.58;;;14.40;79.50;;;;;;5046759;28;20026;-81
2022/11/07 09:35:48;;;;;;;4.78;1.67;;;14.50;80.20;;;;;;5038769;28;20032;-86
2022/11/07 09:38:15;;;;;;;10.70;2.80;;;14.50;79.50;;;;;;5044897;28;20055;-90
2022/11/07 09:41:03;;;;;;;6.82;2.42;;;14.60;79.70;;;;;;5040099;28;20044;-86
2022/11/07 09:43:41;;;;;;;9.48;3.17;;;14.80;80.60;;;;;;5045449;28;20040;-86
2022/11/07 09:46:37;;;;;;;5.50;2.35;;;15.00;80.60;;;;;;5044931;28;20044;-82
2022/11/07 09:49:12;;;;;;;7.63;2.42;;;15.10;80.60;;;;;;5041084;28;20030;-84
2022/11/07 09:51:41;;;;;;;6.97;1.90;;;15.20;80.50;;;;;;5046032;28;20051;-83
2022/11/07 09:54:13;;;;;;;5.45;3.05;;;15.20;80.40;;;;;;5022477;28;20121;-80
2022/11/07 09:56:42;;;;;;;6.93;1.92;;;15.30;80.50;;;;;;5045059;28;20036;-84
2022/11/07 09:59:37;;;;;;;5.32;2.20;;;15.30;80.30;;;;;;5009519;28;20033;-79
2022/11/07 10:02:18;;;;;;;4.93;1.60;;;15.40;80.90;;;;;;5043331;28;20438;-77
2022/11/07 10:04:45;;;;;;;8.75;2.88;;;15.50;80.40;;;;;;5045873;28;20025;-84
2022/11/07 10:07:27;;;;;;;6.65;2.03;;;15.60;80.30;;;;;;5035646;28;20086;-78
2022/11/07 10:10:05;;;;;;;7.87;2.57;;;15.70;80.20;;;;;;5043993;28;20029;-78
2022/11/07 10:12:49;;;;;;;4.47;1.92;;;15.70;80.00;;;;;;5046000;28;20416;-83
2022/11/07 10:15:31;;;;;;;8.80;2.03;;;15.70;79.80;;;;;;5044418;28;20036;-78
2022/11/07 10:18:22;;;;;;;4.85;2.08;;;15.70;79.80;;;;;;5045222;28;20043;-79
2022/11/07 10:20:54;;;;;;;6.68;1.80;;;15.70;79.80;;;;;;5041273;28;20041;-82
2022/11/07 10:23:26;;;;;;;8.23;2.45;;;15.70;79.70;;;;;;5044559;28;20025;-82
2022/11/07 10:26:02;;;;;;;7.28;2.60;;;15.80;79.90;;;;;;5044930;28;20037;-85
2022/11/07 10:28:29;;;;;;;9.70;3.20;;;15.80;79.80;;;;;;5043224;28;20033;-78
2022/11/07 10:30:59;;;;;;;9.18;2.75;;;15.80;79.80;;;;;;5045915;28;20035;-79
2022/11/07 10:33:41;;;;;;;5.93;2.25;;;15.90;79.90;;;;;;5045624;28;20634;-78
2022/11/07 10:36:26;;;;;;;7.55;2.58;;;15.90;79.70;;;;;;5044310;28;20079;-78
2022/11/07 10:38:52;;;;;;;5.22;2.08;;;16.00;79.80;;;;;;5042379;28;20781;-78
2022/11/07 10:41:30;;;;;;;7.10;2.35;;;16.10;79.80;;;;;;5046889;28;20035;-81
2022/11/07 10:44:12;;;;;;;7.07;2.58;;;16.10;79.60;;;;;;5046977;28;20029;-78
2022/11/07 10:46:43;;;;;;;10.13;3.20;;;16.20;79.50;;;;;;5040906;28;20045;-78
2022/11/07 10:49:38;;;;;;;8.90;2.88;;;16.30;79.50;;;;;;5046012;28;20033;-78
2022/11/07 10:52:15;;;;;;;10.20;3.40;;;16.30;79.20;;;;;;5039045;28;20063;-77
2022/11/07 10:54:43;;;;;;;7.63;2.58;;;16.30;79.10;;;;;;5040233;28;20033;-81
2022/11/07 10:57:15;;;;;;;8.82;3.22;;;16.30;79.00;;;;;;5043588;28;20045;-78
2022/11/07 10:59:55;;;;;;;7.10;2.10;;;16.30;79.00;;;;;;5047258;28;20033;-78
2022/11/07 11:02:27;;;;;;;8.52;2.80;;;16.40;79.10;;;;;;5040122;28;20057;-78
2022/11/07 11:04:59;;;;;;;8.50;3.20;;;16.50;79.10;;;;;;5044388;28;20369;-81
2022/11/07 11:07:45;;;;;;;9.35;3.47;;;16.50;78.90;;;;;;5043699;28;20033;-81
2022/11/07 11:10:27;;;;;;;9.10;3.25;;;16.60;78.80;;;;;;5039668;28;20508;-81
2022/11/07 11:12:54;;;;;;;9.65;2.50;;;16.70;78.80;;;;;;5042171;28;20041;-81
2022/11/07 11:15:24;;;;;;;6.55;2.47;;;16.80;78.80;;;;;;5041549;28;20017;-79
2022/11/07 11:17:58;;;;;;;9.15;3.33;;;16.80;78.60;;;;;;5044427;28;20113;-79
2022/11/07 11:20:35;;;;;;;7.43;3.30;;;16.90;78.50;;;;;;5035021;28;20025;-78
2022/11/07 11:23:04;;;;;;;7.57;2.67;;;16.90;78.30;;;;;;5040933;28;20040;-78
2022/11/07 11:25:30;;;;;;;7.70;2.83;;;16.90;78.20;;;;;;5037668;28;20496;-90
2022/11/07 11:28:08;;;;;;;12.82;4.15;;;16.90;78.20;;;;;;5029920;28;20025;-85
2022/11/07 11:30:36;;;;;;;6.65;2.40;;;16.80;77.90;;;;;;5043646;28;20035;-80
2022/11/07 11:33:07;;;;;;;11.70;3.30;;;16.80;78.00;;;;;;5054899;28;20025;-80
2022/11/07 11:35:43;;;;;;;12.45;3.05;;;16.70;77.90;;;;;;5030427;28;20507;-79
2022/11/07 11:38:19;;;;;;;9.18;2.88;;;16.70;77.90;;;;;;5045286;28;20293;-79
2022/11/07 11:40:58;;;;;;;9.82;3.28;;;16.70;77.90;;;;;;5044384;28;20416;-80
2022/11/07 11:43:28;;;;;;;9.52;2.95;;;16.70;77.90;;;;;;5043219;28;20056;-81
2022/11/07 11:46:18;;;;;;;7.70;2.53;;;16.70;77.80;;;;;;5042108;28;20029;-80
2022/11/07 11:48:59;;;;;;;9.73;3.25;;;16.70;77.60;;;;;;5043800;28;20032;-80
2022/11/07 11:51:31;;;;;;;9.77;2.72;;;16.70;78.20;;;;;;5037585;28;20033;-80
2022/11/07 11:53:57;;;;;;;7.22;2.78;;;16.70;77.60;;;;;;5042205;28;20059;-80
2022/11/07 11:56:54;;;;;;;8.82;2.58;;;16.70;77.70;;;;;;5041144;28;20029;-80
2022/11/07 11:59:29;;;;;;;5.82;2.03;;;16.70;77.60;;;;;;5020097;28;20037;-81
2022/11/07 12:02:08;;;;;;;10.93;3.17;;;16.70;77.70;;;;;;5036205;28;20082;-83
2022/11/07 12:04:54;;;;;;;9.23;2.88;;;16.60;77.50;;;;;;5038772;28;20110;-81
2022/11/07 12:07:56;;;;;;;8.43;3.05;;;16.50;77.50;;;;;;5046922;28;20029;-83
2022/11/07 12:10:31;;;;;;;9.27;3.35;;;16.50;77.80;;;;;;5035351;28;20036;-82
2022/11/07 12:13:03;;;;;;;12.63;3.30;;;16.60;78.00;;;;;;5045681;28;21058;-82
2022/11/07 12:15:48;;;;;;;7.97;3.63;;;16.60;77.90;;;;;;5038887;28;20570;-81
2022/11/07 12:18:43;;;;;;;9.35;2.88;;;16.70;78.00;;;;;;5029575;28;20045;-82
2022/11/07 12:21:34;;;;;;;12.85;3.78;;;16.70;77.90;;;;;;5046873;28;20400;-81
2022/11/07 12:24:03;;;;;;;8.25;3.35;;;16.70;78.00;;;;;;5065203;28;20076;-83
2022/11/07 12:26:40;;;;;;;8.70;3.42;;;16.70;77.90;;;;;;5065241;28;20058;-78
2022/11/07 12:29:23;;;;;;;10.55;3.58;;;16.70;77.90;;;;;;5028364;28;20045;-79
2022/11/07 12:32:17;;;;;;;10.23;2.88;;;16.70;77.80;;;;;;5045060;28;20052;-77
2022/11/07 12:34:54;;;;;;;9.30;2.95;;;16.80;78.00;;;;;;5040995;28;20039;-76
2022/11/07 12:37:42;;;;;;;8.63;3.95;;;16.70;77.80;;;;;;5044726;28;20033;-77
2022/11/07 12:40:37;;;;;;;7.38;2.60;;;16.70;77.90;;;;;;5026812;28;20346;-77
2022/11/07 12:43:16;;;;;;;6.13;2.90;;;16.70;78.00;;;;;;5044188;28;20025;-78
2022/11/07 12:45:49;;;;;;;9.65;3.17;;;16.80;78.10;;;;;;5044303;28;20081;-86
2022/11/07 12:48:45;;;;;;;8.68;3.20;;;16.90;78.00;;;;;;5045932;28;20252;-79
2022/11/07 12:51:50;;;;;;;12.55;3.67;;;17.00;78.00;;;;;;5039230;28;20211;-78
2022/11/07 12:54:43;;;;;;;7.47;3.25;;;17.10;77.80;;;;;;5037028;28;20037;-77
2022/11/07 12:57:19;;;;;;;8.80;2.97;;;17.20;77.80;;;;;;5037381;28;20033;-79
2022/11/07 13:00:05;;;;;;;8.63;2.72;;;17.30;77.80;;;;;;5039705;28;20044;-78
2022/11/07 13:02:46;;;;;;;8.93;3.22;;;17.30;77.60;;;;;;5042234;28;20021;-79
2022/11/07 13:05:28;;;;;;;10.45;3.67;;;17.50;77.60;;;;;;5042640;28;20033;-78
2022/11/07 13:08:04;;;;;;;9.57;3.10;;;17.60;77.50;;;;;;5037694;28;20025;-78
2022/11/07 13:10:47;;;;;;;7.97;3.30;;;17.60;77.30;;;;;;5044077;28;20021;-78
2022/11/07 13:13:16;;;;;;;8.60;3.03;;;17.60;77.10;;;;;;5037143;28;20494;-78